Nambouwalu, Fiji
Current Conditions -  °F | °C
As of 1:00 PM on Thursday 23 Oct 2014 (Local Time) from NFNA Reporting Station
Broken Clouds Broken Clouds  
Wind Chill: 28°   Ceiling: 2200
Heat Index: 31°   Visibility: 6mi
Dew Point: 23°   Wind: 7mph
Humidity: 74%   Direction: 60°ENE
Pressure: 29.85"   Gusts: NA
Location:  16.99°S, 178.69°E
Report Text: NFNA 230100Z 06006KT 9999 BKN022 28/23 Q1011
Loading
Personal Weather Stations






























Interactive Weather Map
Tropical Storm Tracking
New forecast layout! Learn more

10-Day Weather Forecast

Advertisements
Track Severe Weather on mobile